sensor_id;sensor_type;location;lat;lon;timestamp;temperature;humidity
21495;DHT22;10909;53.590;10.054;2023-05-21T00:01:55;16.50;57.30
21495;DHT22;10909;53.590;10.054;2023-05-21T00:04:21;16.50;57.20
21495;DHT22;10909;53.590;10.054;2023-05-21T00:06:47;16.40;57.20
21495;DHT22;10909;53.590;10.054;2023-05-21T00:09:16;16.40;57.20
21495;DHT22;10909;53.590;10.054;2023-05-21T00:11:44;16.40;57.10
21495;DHT22;10909;53.590;10.054;2023-05-21T00:14:17;16.30;57.10
21495;DHT22;10909;53.590;10.054;2023-05-21T00:16:44;16.30;57.30
21495;DHT22;10909;53.590;10.054;2023-05-21T00:19:12;16.30;57.20
21495;DHT22;10909;53.590;10.054;2023-05-21T00:21:39;16.20;57.30
21495;DHT22;10909;53.590;10.054;2023-05-21T00:24:06;16.20;57.40
21495;DHT22;10909;53.590;10.054;2023-05-21T00:26:34;16.20;57.50
21495;DHT22;10909;53.590;10.054;2023-05-21T00:29:04;16.20;57.50
21495;DHT22;10909;53.590;10.054;2023-05-21T00:31:35;16.10;57.50
21495;DHT22;10909;53.590;10.054;2023-05-21T00:36:34;16.10;57.70
21495;DHT22;10909;53.590;10.054;2023-05-21T00:39:02;16.10;57.70
21495;DHT22;10909;53.590;10.054;2023-05-21T00:41:29;16.10;57.60
21495;DHT22;10909;53.590;10.054;2023-05-21T00:43:57;16.20;57.70
21495;DHT22;10909;53.590;10.054;2023-05-21T00:46:25;16.10;57.70
21495;DHT22;10909;53.590;10.054;2023-05-21T00:48:53;16.10;57.70
21495;DHT22;10909;53.590;10.054;2023-05-21T00:51:22;16.10;57.70
21495;DHT22;10909;53.590;10.054;2023-05-21T00:53:50;16.10;57.80
21495;DHT22;10909;53.590;10.054;2023-05-21T00:56:23;16.10;57.70
21495;DHT22;10909;53.590;10.054;2023-05-21T00:58:50;16.10;57.80
21495;DHT22;10909;53.590;10.054;2023-05-21T01:01:20;16.00;57.80
21495;DHT22;10909;53.590;10.054;2023-05-21T01:03:53;16.00;57.90
21495;DHT22;10909;53.590;10.054;2023-05-21T01:06:22;16.00;57.90
21495;DHT22;10909;53.590;10.054;2023-05-21T01:08:48;16.00;58.10
21495;DHT22;10909;53.590;10.054;2023-05-21T01:11:16;16.00;58.00
21495;DHT22;10909;53.590;10.054;2023-05-21T01:13:46;15.90;58.00
21495;DHT22;10909;53.590;10.054;2023-05-21T01:16:19;15.90;58.20
21495;DHT22;10909;53.590;10.054;2023-05-21T01:18:47;15.90;58.20
21495;DHT22;10909;53.590;10.054;2023-05-21T01:21:13;15.90;58.20
21495;DHT22;10909;53.590;10.054;2023-05-21T01:23:41;15.90;58.30
21495;DHT22;10909;53.590;10.054;2023-05-21T01:26:07;15.90;58.30
21495;DHT22;10909;53.590;10.054;2023-05-21T01:28:34;15.90;58.30
21495;DHT22;10909;53.590;10.054;2023-05-21T01:31:11;15.90;58.40
21495;DHT22;10909;53.590;10.054;2023-05-21T01:33:47;15.80;58.50
21495;DHT22;10909;53.590;10.054;2023-05-21T01:36:22;15.80;58.60
21495;DHT22;10909;53.590;10.054;2023-05-21T01:39:06;15.80;58.50
21495;DHT22;10909;53.590;10.054;2023-05-21T01:41:39;15.90;58.70
21495;DHT22;10909;53.590;10.054;2023-05-21T01:44:08;15.80;58.70
21495;DHT22;10909;53.590;10.054;2023-05-21T01:46:40;15.80;58.60
21495;DHT22;10909;53.590;10.054;2023-05-21T01:49:09;15.80;58.60
21495;DHT22;10909;53.590;10.054;2023-05-21T01:51:37;15.70;58.70
21495;DHT22;10909;53.590;10.054;2023-05-21T01:54:09;15.70;58.60
21495;DHT22;10909;53.590;10.054;2023-05-21T01:56:42;15.70;58.90
21495;DHT22;10909;53.590;10.054;2023-05-21T01:59:17;15.70;58.90
21495;DHT22;10909;53.590;10.054;2023-05-21T02:01:44;15.70;58.90
21495;DHT22;10909;53.590;10.054;2023-05-21T02:04:16;15.70;59.10
21495;DHT22;10909;53.590;10.054;2023-05-21T02:06:48;15.60;59.10
21495;DHT22;10909;53.590;10.054;2023-05-21T02:09:21;15.60;59.20
21495;DHT22;10909;53.590;10.054;2023-05-21T02:11:51;15.60;59.00
21495;DHT22;10909;53.590;10.054;2023-05-21T02:14:18;15.70;59.20
21495;DHT22;10909;53.590;10.054;2023-05-21T02:16:46;15.60;59.50
21495;DHT22;10909;53.590;10.054;2023-05-21T02:19:17;15.60;59.30
21495;DHT22;10909;53.590;10.054;2023-05-21T02:21:43;15.60;59.50
21495;DHT22;10909;53.590;10.054;2023-05-21T02:24:10;15.60;60.10
21495;DHT22;10909;53.590;10.054;2023-05-21T02:26:35;15.60;59.50
21495;DHT22;10909;53.590;10.054;2023-05-21T02:29:03;15.60;59.60
21495;DHT22;10909;53.590;10.054;2023-05-21T02:31:31;15.60;59.70
21495;DHT22;10909;53.590;10.054;2023-05-21T02:34:02;15.60;59.50
21495;DHT22;10909;53.590;10.054;2023-05-21T02:36:32;15.60;59.60
21495;DHT22;10909;53.590;10.054;2023-05-21T02:39:08;15.50;59.50
21495;DHT22;10909;53.590;10.054;2023-05-21T02:41:43;15.60;59.50
21495;DHT22;10909;53.590;10.054;2023-05-21T02:44:09;15.50;59.60
21495;DHT22;10909;53.590;10.054;2023-05-21T02:46:35;15.50;59.60
21495;DHT22;10909;53.590;10.054;2023-05-21T02:49:09;15.50;59.60
21495;DHT22;10909;53.590;10.054;2023-05-21T02:51:43;15.50;59.80
21495;DHT22;10909;53.590;10.054;2023-05-21T02:54:09;15.40;59.70
21495;DHT22;10909;53.590;10.054;2023-05-21T02:56:35;15.50;59.80
21495;DHT22;10909;53.590;10.054;2023-05-21T02:59:12;15.40;59.80
21495;DHT22;10909;53.590;10.054;2023-05-21T03:01:48;15.40;59.90
21495;DHT22;10909;53.590;10.054;2023-05-21T03:04:21;15.40;60.00
21495;DHT22;10909;53.590;10.054;2023-05-21T03:06:53;15.40;60.10
21495;DHT22;10909;53.590;10.054;2023-05-21T03:09:20;15.40;60.00
21495;DHT22;10909;53.590;10.054;2023-05-21T03:11:46;15.30;60.50
21495;DHT22;10909;53.590;10.054;2023-05-21T03:14:13;15.30;60.30
21495;DHT22;10909;53.590;10.054;2023-05-21T03:16:44;15.30;60.20
21495;DHT22;10909;53.590;10.054;2023-05-21T03:19:13;15.30;60.70
21495;DHT22;10909;53.590;10.054;2023-05-21T03:21:41;15.30;60.80
21495;DHT22;10909;53.590;10.054;2023-05-21T03:24:09;15.30;60.70
21495;DHT22;10909;53.590;10.054;2023-05-21T03:26:38;15.20;60.70
21495;DHT22;10909;53.590;10.054;2023-05-21T03:29:05;15.20;60.70
21495;DHT22;10909;53.590;10.054;2023-05-21T03:31:35;15.20;61.00
21495;DHT22;10909;53.590;10.054;2023-05-21T03:34:02;15.20;61.10
21495;DHT22;10909;53.590;10.054;2023-05-21T03:36:30;15.20;61.30
21495;DHT22;10909;53.590;10.054;2023-05-21T03:38:57;15.20;61.30
21495;DHT22;10909;53.590;10.054;2023-05-21T03:41:23;15.20;61.40
21495;DHT22;10909;53.590;10.054;2023-05-21T03:43:50;15.10;61.30
21495;DHT22;10909;53.590;10.054;2023-05-21T03:46:18;15.10;61.40
21495;DHT22;10909;53.590;10.054;2023-05-21T03:48:45;15.10;61.50
21495;DHT22;10909;53.590;10.054;2023-05-21T03:51:12;15.10;61.50
21495;DHT22;10909;53.590;10.054;2023-05-21T03:53:40;15.10;61.60
21495;DHT22;10909;53.590;10.054;2023-05-21T03:56:11;15.10;61.90
21495;DHT22;10909;53.590;10.054;2023-05-21T03:58:38;15.20;61.80
21495;DHT22;10909;53.590;10.054;2023-05-21T04:01:09;15.20;61.90
21495;DHT22;10909;53.590;10.054;2023-05-21T04:03:35;15.20;61.90
21495;DHT22;10909;53.590;10.054;2023-05-21T04:06:04;15.20;62.20
21495;DHT22;10909;53.590;10.054;2023-05-21T04:08:30;15.20;62.30
21495;DHT22;10909;53.590;10.054;2023-05-21T04:10:56;15.20;62.40
21495;DHT22;10909;53.590;10.054;2023-05-21T04:13:21;15.20;62.30
21495;DHT22;10909;53.590;10.054;2023-05-21T04:15:47;15.30;62.50
21495;DHT22;10909;53.590;10.054;2023-05-21T04:18:13;15.30;62.50
21495;DHT22;10909;53.590;10.054;2023-05-21T04:20:45;15.30;62.50
21495;DHT22;10909;53.590;10.054;2023-05-21T04:23:10;15.30;62.60
21495;DHT22;10909;53.590;10.054;2023-05-21T04:25:36;15.30;62.70
21495;DHT22;10909;53.590;10.054;2023-05-21T04:28:03;15.40;62.90
21495;DHT22;10909;53.590;10.054;2023-05-21T04:30:31;15.40;62.90
21495;DHT22;10909;53.590;10.054;2023-05-21T04:33:00;15.50;63.00
21495;DHT22;10909;53.590;10.054;2023-05-21T04:35:27;15.50;63.10
21495;DHT22;10909;53.590;10.054;2023-05-21T04:37:54;15.60;62.90
21495;DHT22;10909;53.590;10.054;2023-05-21T04:40:25;15.60;63.10
21495;DHT22;10909;53.590;10.054;2023-05-21T04:42:52;15.70;63.20
21495;DHT22;10909;53.590;10.054;2023-05-21T04:45:17;15.70;63.60
21495;DHT22;10909;53.590;10.054;2023-05-21T04:47:43;15.70;63.50
21495;DHT22;10909;53.590;10.054;2023-05-21T04:50:11;15.80;63.30
21495;DHT22;10909;53.590;10.054;2023-05-21T04:52:38;15.80;63.50
21495;DHT22;10909;53.590;10.054;2023-05-21T04:55:06;15.90;63.40
21495;DHT22;10909;53.590;10.054;2023-05-21T04:57:34;15.90;63.30
21495;DHT22;10909;53.590;10.054;2023-05-21T05:00:02;15.90;63.60
21495;DHT22;10909;53.590;10.054;2023-05-21T05:02:30;16.00;63.60
21495;DHT22;10909;53.590;10.054;2023-05-21T05:04:57;16.00;63.50
21495;DHT22;10909;53.590;10.054;2023-05-21T05:07:25;16.00;63.20
21495;DHT22;10909;53.590;10.054;2023-05-21T05:10:01;16.10;63.30
21495;DHT22;10909;53.590;10.054;2023-05-21T05:12:37;16.10;63.30
21495;DHT22;10909;53.590;10.054;2023-05-21T05:15:09;16.20;63.40
21495;DHT22;10909;53.590;10.054;2023-05-21T05:20:06;16.30;63.40
21495;DHT22;10909;53.590;10.054;2023-05-21T05:22:33;16.30;63.50
21495;DHT22;10909;53.590;10.054;2023-05-21T05:24:58;16.30;63.50
21495;DHT22;10909;53.590;10.054;2023-05-21T05:27:24;16.40;63.50
21495;DHT22;10909;53.590;10.054;2023-05-21T05:29:51;16.40;63.30
21495;DHT22;10909;53.590;10.054;2023-05-21T05:32:18;16.40;63.50
21495;DHT22;10909;53.590;10.054;2023-05-21T05:34:44;16.40;63.50
21495;DHT22;10909;53.590;10.054;2023-05-21T05:37:11;16.40;63.50
21495;DHT22;10909;53.590;10.054;2023-05-21T05:39:36;16.50;63.40
21495;DHT22;10909;53.590;10.054;2023-05-21T05:42:02;16.50;63.50
21495;DHT22;10909;53.590;10.054;2023-05-21T05:44:29;16.50;63.50
21495;DHT22;10909;53.590;10.054;2023-05-21T05:46:56;16.60;63.70
21495;DHT22;10909;53.590;10.054;2023-05-21T05:49:22;16.60;63.60
21495;DHT22;10909;53.590;10.054;2023-05-21T05:51:48;16.70;63.70
21495;DHT22;10909;53.590;10.054;2023-05-21T05:54:14;16.70;64.10
21495;DHT22;10909;53.590;10.054;2023-05-21T05:56:41;16.70;63.80
21495;DHT22;10909;53.590;10.054;2023-05-21T05:59:12;16.70;63.90
21495;DHT22;10909;53.590;10.054;2023-05-21T06:01:39;16.80;64.20
21495;DHT22;10909;53.590;10.054;2023-05-21T06:04:07;16.80;64.00
21495;DHT22;10909;53.590;10.054;2023-05-21T06:06:35;16.90;64.00
21495;DHT22;10909;53.590;10.054;2023-05-21T06:09:02;16.90;64.30
21495;DHT22;10909;53.590;10.054;2023-05-21T06:11:27;16.90;64.00
21495;DHT22;10909;53.590;10.054;2023-05-21T06:13:53;17.10;64.40
21495;DHT22;10909;53.590;10.054;2023-05-21T06:16:21;17.10;64.40
21495;DHT22;10909;53.590;10.054;2023-05-21T06:18:46;17.20;64.50
21495;DHT22;10909;53.590;10.054;2023-05-21T06:21:13;17.30;64.60
21495;DHT22;10909;53.590;10.054;2023-05-21T06:23:40;17.30;64.50
21495;DHT22;10909;53.590;10.054;2023-05-21T06:26:07;17.40;64.80
21495;DHT22;10909;53.590;10.054;2023-05-21T06:28:33;17.50;64.70
21495;DHT22;10909;53.590;10.054;2023-05-21T06:30:59;17.60;64.60
21495;DHT22;10909;53.590;10.054;2023-05-21T06:33:26;17.70;64.60
21495;DHT22;10909;53.590;10.054;2023-05-21T06:35:52;17.80;64.80
21495;DHT22;10909;53.590;10.054;2023-05-21T06:38:18;17.90;64.70
21495;DHT22;10909;53.590;10.054;2023-05-21T06:40:44;18.00;64.80
21495;DHT22;10909;53.590;10.054;2023-05-21T06:43:12;18.10;64.50
21495;DHT22;10909;53.590;10.054;2023-05-21T06:45:38;18.20;64.30
21495;DHT22;10909;53.590;10.054;2023-05-21T06:48:04;18.30;64.30
21495;DHT22;10909;53.590;10.054;2023-05-21T06:50:30;18.40;64.10
21495;DHT22;10909;53.590;10.054;2023-05-21T06:52:55;18.40;63.90
21495;DHT22;10909;53.590;10.054;2023-05-21T06:55:21;18.60;63.90
21495;DHT22;10909;53.590;10.054;2023-05-21T06:57:49;18.60;63.90
21495;DHT22;10909;53.590;10.054;2023-05-21T07:00:16;18.70;63.80
21495;DHT22;10909;53.590;10.054;2023-05-21T07:02:42;18.80;63.70
21495;DHT22;10909;53.590;10.054;2023-05-21T07:05:08;18.90;63.80
21495;DHT22;10909;53.590;10.054;2023-05-21T07:07:34;18.90;63.60
21495;DHT22;10909;53.590;10.054;2023-05-21T07:10:01;19.00;63.80
21495;DHT22;10909;53.590;10.054;2023-05-21T07:12:28;19.10;63.50
21495;DHT22;10909;53.590;10.054;2023-05-21T07:14:55;19.20;63.40
21495;DHT22;10909;53.590;10.054;2023-05-21T07:17:24;19.30;63.50
21495;DHT22;10909;53.590;10.054;2023-05-21T07:19:55;19.30;63.30
21495;DHT22;10909;53.590;10.054;2023-05-21T07:24:54;19.50;63.20
21495;DHT22;10909;53.590;10.054;2023-05-21T07:27:21;19.60;63.20
21495;DHT22;10909;53.590;10.054;2023-05-21T07:29:46;19.60;63.00
21495;DHT22;10909;53.590;10.054;2023-05-21T07:32:12;19.70;62.80
21495;DHT22;10909;53.590;10.054;2023-05-21T07:34:40;19.70;62.70
21495;DHT22;10909;53.590;10.054;2023-05-21T07:37:09;19.80;62.90
21495;DHT22;10909;53.590;10.054;2023-05-21T07:39:40;19.90;62.90
21495;DHT22;10909;53.590;10.054;2023-05-21T07:42:07;20.00;62.70
21495;DHT22;10909;53.590;10.054;2023-05-21T07:44:40;20.10;62.70
21495;DHT22;10909;53.590;10.054;2023-05-21T07:47:07;20.10;62.60
21495;DHT22;10909;53.590;10.054;2023-05-21T07:49:34;20.10;63.30
21495;DHT22;10909;53.590;10.054;2023-05-21T07:52:04;20.20;62.60
21495;DHT22;10909;53.590;10.054;2023-05-21T07:54:30;20.30;62.70
21495;DHT22;10909;53.590;10.054;2023-05-21T07:56:57;20.40;62.70
21495;DHT22;10909;53.590;10.054;2023-05-21T07:59:27;20.50;62.70
21495;DHT22;10909;53.590;10.054;2023-05-21T08:01:53;20.60;62.60
21495;DHT22;10909;53.590;10.054;2023-05-21T08:04:19;20.80;62.40
21495;DHT22;10909;53.590;10.054;2023-05-21T08:06:45;20.90;62.10
21495;DHT22;10909;53.590;10.054;2023-05-21T08:09:10;21.00;61.80
21495;DHT22;10909;53.590;10.054;2023-05-21T08:11:36;21.10;61.70
21495;DHT22;10909;53.590;10.054;2023-05-21T08:14:02;21.20;61.50
21495;DHT22;10909;53.590;10.054;2023-05-21T08:16:28;21.20;61.30
21495;DHT22;10909;53.590;10.054;2023-05-21T08:18:54;21.30;61.10
21495;DHT22;10909;53.590;10.054;2023-05-21T08:21:21;21.30;61.10
21495;DHT22;10909;53.590;10.054;2023-05-21T08:23:47;21.40;61.20
21495;DHT22;10909;53.590;10.054;2023-05-21T08:26:14;21.50;61.10
21495;DHT22;10909;53.590;10.054;2023-05-21T08:28:44;21.50;61.00
21495;DHT22;10909;53.590;10.054;2023-05-21T08:31:10;21.60;60.70
21495;DHT22;10909;53.590;10.054;2023-05-21T08:33:37;21.70;60.70
21495;DHT22;10909;53.590;10.054;2023-05-21T08:36:06;21.80;60.60
21495;DHT22;10909;53.590;10.054;2023-05-21T08:38:33;21.80;60.40
21495;DHT22;10909;53.590;10.054;2023-05-21T08:40:59;21.80;61.10
21495;DHT22;10909;53.590;10.054;2023-05-21T08:43:28;21.90;60.30
21495;DHT22;10909;53.590;10.054;2023-05-21T08:45:55;21.90;60.10
21495;DHT22;10909;53.590;10.054;2023-05-21T08:48:23;21.90;60.10
21495;DHT22;10909;53.590;10.054;2023-05-21T08:50:52;22.00;60.20
21495;DHT22;10909;53.590;10.054;2023-05-21T08:53:18;22.10;60.20
21495;DHT22;10909;53.590;10.054;2023-05-21T08:55:48;22.10;60.30
21495;DHT22;10909;53.590;10.054;2023-05-21T08:58:16;22.20;60.20
21495;DHT22;10909;53.590;10.054;2023-05-21T09:00:42;22.30;60.20
21495;DHT22;10909;53.590;10.054;2023-05-21T09:03:09;22.40;60.00
21495;DHT22;10909;53.590;10.054;2023-05-21T09:05:43;22.40;59.90
21495;DHT22;10909;53.590;10.054;2023-05-21T09:08:30;22.60;59.90
21495;DHT22;10909;53.590;10.054;2023-05-21T09:10:57;22.60;59.80
21495;DHT22;10909;53.590;10.054;2023-05-21T09:13:24;22.70;59.70
21495;DHT22;10909;53.590;10.054;2023-05-21T09:15:51;22.70;59.60
21495;DHT22;10909;53.590;10.054;2023-05-21T09:18:16;22.80;59.60
21495;DHT22;10909;53.590;10.054;2023-05-21T09:20:43;22.90;59.60
21495;DHT22;10909;53.590;10.054;2023-05-21T09:23:09;22.90;59.60
21495;DHT22;10909;53.590;10.054;2023-05-21T09:25:41;23.00;59.50
21495;DHT22;10909;53.590;10.054;2023-05-21T09:28:13;23.10;59.40
21495;DHT22;10909;53.590;10.054;2023-05-21T09:30:46;23.20;59.30
21495;DHT22;10909;53.590;10.054;2023-05-21T09:33:26;23.20;59.10
21495;DHT22;10909;53.590;10.054;2023-05-21T09:35:53;23.30;59.00
21495;DHT22;10909;53.590;10.054;2023-05-21T09:38:22;23.30;59.00
21495;DHT22;10909;53.590;10.054;2023-05-21T09:40:48;23.40;59.00
21495;DHT22;10909;53.590;10.054;2023-05-21T09:43:17;23.40;59.00
21495;DHT22;10909;53.590;10.054;2023-05-21T09:45:54;23.50;58.90
21495;DHT22;10909;53.590;10.054;2023-05-21T09:48:39;23.60;59.00
21495;DHT22;10909;53.590;10.054;2023-05-21T09:51:24;23.60;58.90
21495;DHT22;10909;53.590;10.054;2023-05-21T09:53:54;23.70;58.80
21495;DHT22;10909;53.590;10.054;2023-05-21T09:56:26;23.80;58.90
21495;DHT22;10909;53.590;10.054;2023-05-21T09:58:55;23.90;58.90
21495;DHT22;10909;53.590;10.054;2023-05-21T10:01:23;23.90;58.70
21495;DHT22;10909;53.590;10.054;2023-05-21T10:03:53;24.00;58.60
21495;DHT22;10909;53.590;10.054;2023-05-21T10:06:27;24.10;58.50
21495;DHT22;10909;53.590;10.054;2023-05-21T10:08:56;24.10;58.40
21495;DHT22;10909;53.590;10.054;2023-05-21T10:11:30;24.20;58.40
21495;DHT22;10909;53.590;10.054;2023-05-21T10:14:06;24.30;58.50
21495;DHT22;10909;53.590;10.054;2023-05-21T10:16:35;24.40;58.30
21495;DHT22;10909;53.590;10.054;2023-05-21T10:19:02;24.50;58.30
21495;DHT22;10909;53.590;10.054;2023-05-21T10:21:29;24.60;58.20
21495;DHT22;10909;53.590;10.054;2023-05-21T10:23:59;24.70;58.00
21495;DHT22;10909;53.590;10.054;2023-05-21T10:26:27;24.80;57.90
21495;DHT22;10909;53.590;10.054;2023-05-21T10:28:55;24.90;57.80
21495;DHT22;10909;53.590;10.054;2023-05-21T10:31:22;24.90;57.50
21495;DHT22;10909;53.590;10.054;2023-05-21T10:33:48;24.90;57.20
21495;DHT22;10909;53.590;10.054;2023-05-21T10:36:16;25.00;57.30
21495;DHT22;10909;53.590;10.054;2023-05-21T10:38:44;25.10;57.40
21495;DHT22;10909;53.590;10.054;2023-05-21T10:41:13;25.20;57.30
21495;DHT22;10909;53.590;10.054;2023-05-21T10:49:50;25.40;56.80
21495;DHT22;10909;53.590;10.054;2023-05-21T11:01:03;25.70;56.40
21495;DHT22;10909;53.590;10.054;2023-05-21T11:03:31;25.80;56.60
21495;DHT22;10909;53.590;10.054;2023-05-21T11:06:02;25.90;56.50
21495;DHT22;10909;53.590;10.054;2023-05-21T11:08:33;25.90;56.10
21495;DHT22;10909;53.590;10.054;2023-05-21T11:11:55;26.00;56.20
21495;DHT22;10909;53.590;10.054;2023-05-21T11:14:39;26.00;55.50
21495;DHT22;10909;53.590;10.054;2023-05-21T11:19:41;26.20;55.90
21495;DHT22;10909;53.590;10.054;2023-05-21T11:22:09;26.20;55.80
21495;DHT22;10909;53.590;10.054;2023-05-21T11:25:04;26.30;55.80
21495;DHT22;10909;53.590;10.054;2023-05-21T11:27:33;26.40;55.40
21495;DHT22;10909;53.590;10.054;2023-05-21T11:30:04;26.60;55.50
21495;DHT22;10909;53.590;10.054;2023-05-21T11:32:31;26.60;55.30
21495;DHT22;10909;53.590;10.054;2023-05-21T11:34:59;26.60;55.30
21495;DHT22;10909;53.590;10.054;2023-05-21T11:37:29;26.70;55.10
21495;DHT22;10909;53.590;10.054;2023-05-21T11:40:21;26.80;55.20
21495;DHT22;10909;53.590;10.054;2023-05-21T11:42:52;27.00;54.80
21495;DHT22;10909;53.590;10.054;2023-05-21T11:45:21;27.00;54.70
21495;DHT22;10909;53.590;10.054;2023-05-21T11:47:49;27.10;54.50
21495;DHT22;10909;53.590;10.054;2023-05-21T11:50:18;27.10;54.60
21495;DHT22;10909;53.590;10.054;2023-05-21T11:52:45;27.20;54.40
21495;DHT22;10909;53.590;10.054;2023-05-21T11:55:11;27.40;54.60
21495;DHT22;10909;53.590;10.054;2023-05-21T11:57:40;27.40;54.30
21495;DHT22;10909;53.590;10.054;2023-05-21T12:00:13;27.50;54.00
21495;DHT22;10909;53.590;10.054;2023-05-21T12:02:44;27.60;54.00
21495;DHT22;10909;53.590;10.054;2023-05-21T12:05:46;27.70;53.70
21495;DHT22;10909;53.590;10.054;2023-05-21T12:08:23;27.80;52.80
21495;DHT22;10909;53.590;10.054;2023-05-21T12:10:59;27.90;53.40
21495;DHT22;10909;53.590;10.054;2023-05-21T12:13:35;28.00;53.50
21495;DHT22;10909;53.590;10.054;2023-05-21T12:16:10;28.00;53.40
21495;DHT22;10909;53.590;10.054;2023-05-21T12:18:41;28.10;53.40
21495;DHT22;10909;53.590;10.054;2023-05-21T12:21:10;28.20;53.20
21495;DHT22;10909;53.590;10.054;2023-05-21T12:23:36;28.30;53.30
21495;DHT22;10909;53.590;10.054;2023-05-21T12:26:03;28.50;53.40
21495;DHT22;10909;53.590;10.054;2023-05-21T12:28:28;28.70;53.40
21495;DHT22;10909;53.590;10.054;2023-05-21T12:30:55;28.80;52.90
21495;DHT22;10909;53.590;10.054;2023-05-21T12:33:21;28.90;52.80
21495;DHT22;10909;53.590;10.054;2023-05-21T12:35:50;29.10;53.20
21495;DHT22;10909;53.590;10.054;2023-05-21T12:38:17;29.20;52.40
21495;DHT22;10909;53.590;10.054;2023-05-21T12:40:44;29.30;52.20
21495;DHT22;10909;53.590;10.054;2023-05-21T12:43:12;29.30;51.80
21495;DHT22;10909;53.590;10.054;2023-05-21T12:45:43;29.30;51.70
21495;DHT22;10909;53.590;10.054;2023-05-21T12:48:09;29.40;51.40
21495;DHT22;10909;53.590;10.054;2023-05-21T12:50:38;29.40;51.20
21495;DHT22;10909;53.590;10.054;2023-05-21T12:53:08;29.40;51.20
21495;DHT22;10909;53.590;10.054;2023-05-21T12:55:34;29.40;51.10
21495;DHT22;10909;53.590;10.054;2023-05-21T12:58:02;29.40;51.20
21495;DHT22;10909;53.590;10.054;2023-05-21T13:00:31;29.40;51.00
21495;DHT22;10909;53.590;10.054;2023-05-21T13:02:57;29.50;51.00
21495;DHT22;10909;53.590;10.054;2023-05-21T13:05:25;29.50;50.80
21495;DHT22;10909;53.590;10.054;2023-05-21T13:07:57;29.40;50.60
21495;DHT22;10909;53.590;10.054;2023-05-21T13:12:58;29.40;50.50
21495;DHT22;10909;53.590;10.054;2023-05-21T13:15:24;29.30;50.50
21495;DHT22;10909;53.590;10.054;2023-05-21T13:17:57;29.30;50.50
21495;DHT22;10909;53.590;10.054;2023-05-21T13:20:28;29.30;50.50
21495;DHT22;10909;53.590;10.054;2023-05-21T13:23:02;29.30;50.50
21495;DHT22;10909;53.590;10.054;2023-05-21T13:25:33;29.30;50.50
21495;DHT22;10909;53.590;10.054;2023-05-21T13:28:04;29.30;50.40
21495;DHT22;10909;53.590;10.054;2023-05-21T13:30:31;29.20;50.40
21495;DHT22;10909;53.590;10.054;2023-05-21T13:33:05;29.20;50.40
21495;DHT22;10909;53.590;10.054;2023-05-21T13:35:32;29.20;50.50
21495;DHT22;10909;53.590;10.054;2023-05-21T13:38:00;29.20;50.60
21495;DHT22;10909;53.590;10.054;2023-05-21T13:40:30;29.30;50.50
21495;DHT22;10909;53.590;10.054;2023-05-21T13:42:59;29.30;50.40
21495;DHT22;10909;53.590;10.054;2023-05-21T13:45:27;29.30;50.40
21495;DHT22;10909;53.590;10.054;2023-05-21T13:47:53;29.30;50.30
21495;DHT22;10909;53.590;10.054;2023-05-21T13:50:19;29.40;50.40
21495;DHT22;10909;53.590;10.054;2023-05-21T13:52:44;29.40;50.20
21495;DHT22;10909;53.590;10.054;2023-05-21T13:55:10;29.40;50.20
21495;DHT22;10909;53.590;10.054;2023-05-21T13:57:38;29.50;50.10
21495;DHT22;10909;53.590;10.054;2023-05-21T14:00:05;29.60;50.00
21495;DHT22;10909;53.590;10.054;2023-05-21T14:02:36;29.60;50.00
21495;DHT22;10909;53.590;10.054;2023-05-21T14:05:02;29.70;50.00
21495;DHT22;10909;53.590;10.054;2023-05-21T14:07:28;29.80;49.80
21495;DHT22;10909;53.590;10.054;2023-05-21T14:09:53;29.90;49.80
21495;DHT22;10909;53.590;10.054;2023-05-21T14:12:19;29.90;49.50
21495;DHT22;10909;53.590;10.054;2023-05-21T14:14:46;30.00;49.20
21495;DHT22;10909;53.590;10.054;2023-05-21T14:17:14;30.00;49.10
21495;DHT22;10909;53.590;10.054;2023-05-21T14:19:40;30.10;48.90
21495;DHT22;10909;53.590;10.054;2023-05-21T14:22:05;30.20;49.20
21495;DHT22;10909;53.590;10.054;2023-05-21T14:24:31;30.30;48.90
21495;DHT22;10909;53.590;10.054;2023-05-21T14:26:57;30.40;48.40
21495;DHT22;10909;53.590;10.054;2023-05-21T14:29:26;30.50;48.30
21495;DHT22;10909;53.590;10.054;2023-05-21T14:31:58;30.70;47.80
21495;DHT22;10909;53.590;10.054;2023-05-21T14:34:25;30.60;47.50
21495;DHT22;10909;53.590;10.054;2023-05-21T14:37:01;30.70;47.50
21495;DHT22;10909;53.590;10.054;2023-05-21T14:39:30;30.70;47.50
21495;DHT22;10909;53.590;10.054;2023-05-21T14:41:56;30.70;47.40
21495;DHT22;10909;53.590;10.054;2023-05-21T14:44:26;30.70;47.20
21495;DHT22;10909;53.590;10.054;2023-05-21T14:47:28;30.70;47.20
21495;DHT22;10909;53.590;10.054;2023-05-21T14:49:55;30.70;47.00
21495;DHT22;10909;53.590;10.054;2023-05-21T14:52:27;30.70;47.10
21495;DHT22;10909;53.590;10.054;2023-05-21T14:55:00;30.70;46.80
21495;DHT22;10909;53.590;10.054;2023-05-21T14:57:29;30.70;47.00
21495;DHT22;10909;53.590;10.054;2023-05-21T14:59:58;30.60;46.70
21495;DHT22;10909;53.590;10.054;2023-05-21T15:02:42;30.60;46.70
21495;DHT22;10909;53.590;10.054;2023-05-21T15:05:08;30.60;46.60
21495;DHT22;10909;53.590;10.054;2023-05-21T15:07:35;30.50;46.50
21495;DHT22;10909;53.590;10.054;2023-05-21T15:10:06;30.40;46.40
21495;DHT22;10909;53.590;10.054;2023-05-21T15:12:32;30.40;46.40
21495;DHT22;10909;53.590;10.054;2023-05-21T15:14:59;30.30;46.30
21495;DHT22;10909;53.590;10.054;2023-05-21T15:17:29;30.20;46.30
21495;DHT22;10909;53.590;10.054;2023-05-21T15:19:55;30.20;46.60
21495;DHT22;10909;53.590;10.054;2023-05-21T15:22:21;30.10;46.70
21495;DHT22;10909;53.590;10.054;2023-05-21T15:24:46;30.00;46.70
21495;DHT22;10909;53.590;10.054;2023-05-21T15:27:13;30.00;46.80
21495;DHT22;10909;53.590;10.054;2023-05-21T15:29:39;29.90;46.90
21495;DHT22;10909;53.590;10.054;2023-05-21T15:32:05;29.90;47.10
21495;DHT22;10909;53.590;10.054;2023-05-21T15:34:32;29.90;47.10
21495;DHT22;10909;53.590;10.054;2023-05-21T15:36:58;30.00;47.30
21495;DHT22;10909;53.590;10.054;2023-05-21T15:39:23;30.00;47.10
21495;DHT22;10909;53.590;10.054;2023-05-21T15:41:50;30.00;47.20
21495;DHT22;10909;53.590;10.054;2023-05-21T15:44:18;30.10;47.10
21495;DHT22;10909;53.590;10.054;2023-05-21T15:46:44;30.10;47.10
21495;DHT22;10909;53.590;10.054;2023-05-21T15:49:10;30.00;47.00
21495;DHT22;10909;53.590;10.054;2023-05-21T15:51:35;30.00;47.00
21495;DHT22;10909;53.590;10.054;2023-05-21T15:54:01;30.00;46.80